Time;durP1;ratioP1;P1;durP2;ratioP2;P2;SDS_P1;SDS_P2;PMS_P1;PMS_P2;Temp;Humidity;BMP_temperature;BMP_pressure;BME280_temperature;BME280_humidity;BME280_pressure;Samples;Min_cycle;Max_cycle;Signal;HPM_P1;HPM_P2
2021/03/16 00:01:33;;;;;;;12.63;3.80;;;7.10;81.20;;;;;;5073657;28;20418;-80
2021/03/16 00:03:59;;;;;;;20.77;3.63;;;7.10;81.70;;;;;;5072676;28;20920;-80
2021/03/16 00:06:25;;;;;;;15.63;3.30;;;7.20;80.80;;;;;;5072957;28;20176;-79
2021/03/16 00:08:50;;;;;;;25.77;4.63;;;7.20;80.70;;;;;;5072873;28;20226;-79
2021/03/16 00:11:16;;;;;;;25.50;3.87;;;7.30;80.60;;;;;;5072225;28;20245;-80
2021/03/16 00:13:42;;;;;;;19.90;3.83;;;7.30;80.60;;;;;;5073667;28;20179;-80
2021/03/16 00:16:07;;;;;;;11.30;3.90;;;7.30;80.90;;;;;;5072567;28;20211;-81
2021/03/16 00:18:33;;;;;;;23.27;4.30;;;7.20;81.40;;;;;;5072791;28;20184;-80
2021/03/16 00:20:59;;;;;;;17.43;4.30;;;7.20;81.70;;;;;;5072228;28;20407;-80
2021/03/16 00:23:25;;;;;;;23.53;5.67;;;7.30;81.80;;;;;;5073016;28;20256;-79
2021/03/16 00:25:50;;;;;;;21.43;4.43;;;7.20;81.70;;;;;;5073127;28;20590;-80
2021/03/16 00:28:16;;;;;;;7.27;3.27;;;7.20;81.40;;;;;;5074016;28;20206;-79
2021/03/16 00:30:42;;;;;;;26.53;4.50;;;7.10;81.00;;;;;;5075242;28;20177;-81
2021/03/16 00:33:07;;;;;;;19.33;3.77;;;7.20;81.00;;;;;;5075480;28;20188;-81
2021/03/16 00:35:33;;;;;;;27.13;4.30;;;7.20;81.20;;;;;;5073286;28;20549;-81
2021/03/16 00:37:59;;;;;;;19.93;4.23;;;7.10;81.20;;;;;;5073112;28;20276;-81
2021/03/16 00:40:25;;;;;;;18.87;3.97;;;7.10;81.30;;;;;;5073168;28;20235;-81
2021/03/16 00:42:50;;;;;;;16.73;3.90;;;7.20;81.00;;;;;;5073663;28;20212;-81
2021/03/16 00:45:16;;;;;;;13.40;3.70;;;7.10;80.50;;;;;;5074560;28;20168;-82
2021/03/16 00:47:42;;;;;;;12.50;3.67;;;7.10;80.40;;;;;;5074580;28;21029;-82
2021/03/16 00:50:11;;;;;;;17.13;3.60;;;7.10;80.20;;;;;;5074535;28;20415;-82
2021/03/16 00:52:37;;;;;;;16.35;3.05;;;7.20;80.30;;;;;;5076057;28;20202;-82
2021/03/16 00:55:04;;;;;;;15.90;3.67;;;7.20;80.30;;;;;;5076416;28;20623;-81
2021/03/16 00:57:30;;;;;;;10.90;4.10;;;7.20;80.40;;;;;;5076472;28;20458;-82
2021/03/16 00:59:56;;;;;;;18.47;2.90;;;7.30;80.20;;;;;;5076565;28;20249;-81
2021/03/16 01:02:22;;;;;;;8.27;2.80;;;7.30;80.00;;;;;;5076307;28;20438;-82
2021/03/16 01:04:47;;;;;;;14.77;3.47;;;7.20;79.60;;;;;;5077721;28;20172;-82
2021/03/16 01:07:14;;;;;;;19.80;3.50;;;7.30;79.50;;;;;;5077696;28;20256;-81
2021/03/16 01:09:39;;;;;;;11.73;2.92;;;7.30;79.30;;;;;;5077666;28;20177;-81
2021/03/16 01:12:06;;;;;;;16.03;3.63;;;7.20;78.70;;;;;;5077026;28;20202;-81
2021/03/16 01:14:32;;;;;;;17.95;3.35;;;7.20;78.70;;;;;;5076203;28;20658;-81
2021/03/16 01:16:58;;;;;;;7.60;2.85;;;7.20;78.80;;;;;;5076019;28;20287;-81
2021/03/16 01:19:24;;;;;;;10.70;2.10;;;7.20;78.70;;;;;;5077377;28;20650;-81
2021/03/16 01:21:50;;;;;;;11.50;3.20;;;7.20;78.20;;;;;;5076737;28;20427;-82
2021/03/16 01:24:17;;;;;;;12.60;2.33;;;7.30;78.10;;;;;;5076061;28;20425;-81
2021/03/16 01:26:42;;;;;;;5.88;2.53;;;7.20;76.80;;;;;;5076015;28;20207;-81
2021/03/16 01:29:08;;;;;;;5.33;1.77;;;7.30;76.30;;;;;;5077170;28;20644;-80
2021/03/16 01:31:35;;;;;;;17.08;2.65;;;7.10;75.40;;;;;;5075156;28;20207;-81
2021/03/16 01:34:01;;;;;;;6.78;1.70;;;7.00;74.70;;;;;;5075800;28;20176;-82
2021/03/16 01:36:26;;;;;;;7.93;2.17;;;7.00;74.90;;;;;;5075854;28;20203;-81
2021/03/16 01:38:52;;;;;;;7.77;2.10;;;7.00;75.30;;;;;;5076025;28;20260;-81
2021/03/16 01:41:18;;;;;;;14.50;2.60;;;7.00;75.70;;;;;;5075237;28;20756;-81
2021/03/16 01:43:43;;;;;;;8.57;2.70;;;7.10;76.20;;;;;;5075485;28;20231;-81
2021/03/16 01:46:09;;;;;;;10.70;3.00;;;7.00;76.50;;;;;;5077066;28;20180;-81
2021/03/16 01:48:36;;;;;;;12.43;2.30;;;7.10;76.60;;;;;;5075498;28;20193;-81
2021/03/16 01:51:08;;;;;;;14.88;3.17;;;7.00;76.20;;;;;;5074678;28;20662;-82
2021/03/16 01:53:35;;;;;;;20.77;2.63;;;7.20;76.30;;;;;;5075496;28;20229;-82
2021/03/16 01:56:02;;;;;;;13.55;2.42;;;7.10;76.10;;;;;;5075380;28;20204;-81
2021/03/16 01:58:28;;;;;;;22.83;3.13;;;7.10;76.20;;;;;;5076588;28;20175;-82
2021/03/16 02:00:54;;;;;;;5.60;2.05;;;7.00;76.50;;;;;;5076514;28;20168;-82
2021/03/16 02:03:22;;;;;;;12.07;2.17;;;7.00;77.00;;;;;;5074875;28;20235;-81
2021/03/16 02:05:48;;;;;;;8.30;2.40;;;7.00;77.30;;;;;;5075363;28;20418;-81
2021/03/16 02:08:47;;;;;;;13.67;2.47;;;7.20;77.40;;;;;;5075264;28;20261;-82
2021/03/16 02:11:27;;;;;;;21.00;2.55;;;7.20;77.00;;;;;;5074622;28;20169;-82
2021/03/16 02:14:14;;;;;;;21.90;2.58;;;7.20;76.50;;;;;;5075062;28;20177;-81
2021/03/16 02:17:07;;;;;;;14.32;2.33;;;7.20;75.80;;;;;;5075276;28;20732;-82
2021/03/16 02:19:41;;;;;;;19.67;3.58;;;7.10;75.20;;;;;;5068829;28;20551;-82
2021/03/16 02:22:08;;;;;;;13.70;2.55;;;7.10;74.80;;;;;;5074657;28;20203;-82
2021/03/16 02:24:55;;;;;;;11.60;2.30;;;7.10;74.80;;;;;;5074873;28;20566;-82
2021/03/16 02:27:27;;;;;;;5.45;1.60;;;7.10;74.50;;;;;;5076271;28;20177;-83
2021/03/16 02:29:58;;;;;;;8.05;1.75;;;7.10;74.10;;;;;;5075253;28;20203;-82
2021/03/16 02:32:27;;;;;;;10.75;2.25;;;7.10;73.70;;;;;;5074406;28;20247;-82
2021/03/16 02:35:00;;;;;;;6.10;1.90;;;7.10;73.80;;;;;;5075003;28;20627;-82
2021/03/16 02:37:27;;;;;;;10.02;1.95;;;7.10;73.80;;;;;;5074711;28;20686;-82
2021/03/16 02:39:55;;;;;;;5.53;1.55;;;7.10;73.50;;;;;;5074837;28;20196;-82
2021/03/16 02:42:22;;;;;;;10.45;2.58;;;7.20;73.60;;;;;;5074135;28;20212;-83
2021/03/16 02:44:50;;;;;;;5.75;2.25;;;7.10;74.00;;;;;;5077250;28;20652;-82
2021/03/16 02:47:19;;;;;;;4.43;2.05;;;7.20;74.40;;;;;;5074683;28;20187;-83
2021/03/16 02:49:46;;;;;;;14.65;2.25;;;7.10;74.00;;;;;;5076502;28;20176;-82
2021/03/16 02:52:14;;;;;;;4.60;1.80;;;7.00;73.70;;;;;;5055380;28;20278;-81
2021/03/16 02:54:41;;;;;;;5.72;1.80;;;7.30;73.70;;;;;;5056977;28;20261;-81
2021/03/16 02:57:08;;;;;;;7.55;2.08;;;7.40;73.40;;;;;;5056796;28;20193;-81
2021/03/16 02:59:35;;;;;;;8.85;1.95;;;7.20;73.10;;;;;;5066368;28;20181;-81
2021/03/16 03:02:03;;;;;;;7.60;1.80;;;7.20;73.30;;;;;;5074970;28;20189;-81
2021/03/16 03:04:30;;;;;;;8.40;2.15;;;7.20;73.20;;;;;;5076187;28;20230;-82
2021/03/16 03:06:59;;;;;;;5.95;1.90;;;7.10;73.10;;;;;;5075714;28;20183;-82
2021/03/16 03:09:25;;;;;;;16.52;2.17;;;7.10;73.20;;;;;;5075949;28;20279;-82
2021/03/16 03:11:51;;;;;;;6.70;1.90;;;7.10;73.20;;;;;;5075152;28;20276;-81
2021/03/16 03:14:16;;;;;;;7.37;1.70;;;7.10;73.20;;;;;;5076892;28;20176;-81
2021/03/16 03:16:42;;;;;;;8.90;1.90;;;7.10;73.10;;;;;;5076238;28;20242;-83
2021/03/16 03:19:08;;;;;;;9.23;2.33;;;7.10;73.20;;;;;;5074163;28;20872;-82
2021/03/16 03:21:42;;;;;;;8.60;2.00;;;7.10;73.50;;;;;;5073633;28;20435;-82
2021/03/16 03:24:10;;;;;;;10.00;2.70;;;7.20;73.80;;;;;;5075811;28;20164;-82
2021/03/16 03:26:43;;;;;;;13.63;2.40;;;7.30;74.00;;;;;;5074656;28;20693;-82
2021/03/16 03:29:10;;;;;;;8.35;1.60;;;7.30;74.20;;;;;;5074606;28;20168;-82
2021/03/16 03:31:38;;;;;;;14.27;1.70;;;7.40;74.10;;;;;;5076380;28;20320;-82
2021/03/16 03:34:05;;;;;;;10.00;2.38;;;7.30;74.40;;;;;;5076069;28;20216;-83
2021/03/16 03:36:37;;;;;;;9.82;2.90;;;7.40;74.50;;;;;;5075010;28;20212;-82
2021/03/16 03:39:06;;;;;;;10.85;2.50;;;7.40;74.50;;;;;;5074886;28;20238;-82
2021/03/16 03:41:34;;;;;;;7.93;2.95;;;7.40;74.40;;;;;;5073776;28;20232;-83
2021/03/16 03:44:01;;;;;;;5.45;1.92;;;7.40;74.40;;;;;;5074118;28;20230;-82
2021/03/16 03:46:29;;;;;;;6.20;2.20;;;7.40;74.70;;;;;;5074414;28;20663;-83
2021/03/16 03:48:56;;;;;;;11.98;2.33;;;7.50;75.00;;;;;;5075421;28;20188;-81
2021/03/16 03:51:22;;;;;;;11.80;2.88;;;7.50;74.80;;;;;;5073285;28;20291;-82
2021/03/16 03:53:49;;;;;;;5.90;2.00;;;7.60;74.80;;;;;;5074092;28;20266;-81
2021/03/16 03:56:16;;;;;;;11.07;2.42;;;7.70;74.90;;;;;;5073134;28;20283;-82
2021/03/16 03:58:43;;;;;;;6.90;2.10;;;7.70;74.80;;;;;;5073287;28;20173;-82
2021/03/16 04:01:09;;;;;;;5.93;2.05;;;7.80;74.80;;;;;;5072522;28;20188;-83
2021/03/16 04:03:36;;;;;;;16.83;2.17;;;7.70;74.90;;;;;;5074261;28;20169;-83
2021/03/16 04:06:03;;;;;;;19.73;2.72;;;7.70;75.00;;;;;;5072895;28;20527;-82
2021/03/16 04:08:30;;;;;;;9.85;2.17;;;7.70;74.90;;;;;;5056219;28;20644;-82
2021/03/16 04:10:57;;;;;;;8.52;2.33;;;7.80;75.00;;;;;;5074895;28;20594;-82
2021/03/16 04:13:23;;;;;;;19.05;2.70;;;7.80;74.80;;;;;;5077284;28;20181;-81
2021/03/16 04:15:50;;;;;;;5.70;1.83;;;7.70;75.10;;;;;;5078655;28;20678;-81
2021/03/16 04:18:16;;;;;;;10.80;2.95;;;7.60;75.40;;;;;;5081991;28;20549;-81
2021/03/16 04:20:45;;;;;;;11.33;2.40;;;7.60;75.50;;;;;;5080594;28;20172;-81
2021/03/16 04:23:12;;;;;;;19.55;3.08;;;7.60;75.70;;;;;;5080528;28;20472;-81
2021/03/16 04:25:38;;;;;;;8.93;1.55;;;7.50;76.00;;;;;;5077528;28;20268;-83
2021/03/16 04:28:03;;;;;;;8.13;2.77;;;7.60;76.00;;;;;;5072856;28;20219;-82
2021/03/16 04:30:29;;;;;;;7.60;2.17;;;7.60;76.00;;;;;;5072481;28;20181;-82
2021/03/16 04:32:55;;;;;;;7.67;2.37;;;7.70;75.90;;;;;;5072929;28;20637;-82
2021/03/16 04:35:21;;;;;;;10.65;2.70;;;7.60;75.80;;;;;;5074208;28;20255;-81
2021/03/16 04:37:47;;;;;;;10.33;2.67;;;7.60;75.80;;;;;;5072666;28;20239;-81
2021/03/16 04:40:13;;;;;;;10.87;2.90;;;7.60;76.10;;;;;;5074344;28;20176;-81
2021/03/16 04:42:39;;;;;;;29.23;2.33;;;7.60;76.40;;;;;;5071813;28;20302;-82
2021/03/16 04:45:05;;;;;;;8.30;2.43;;;7.70;76.40;;;;;;5073940;28;20674;-82
2021/03/16 04:47:31;;;;;;;12.88;2.00;;;7.70;76.60;;;;;;5072308;28;20426;-81
2021/03/16 04:49:56;;;;;;;18.57;5.33;;;7.80;76.60;;;;;;5072380;28;20188;-81
2021/03/16 04:52:22;;;;;;;12.10;2.47;;;7.70;76.60;;;;;;5071873;28;20211;-82
2021/03/16 04:54:48;;;;;;;9.90;2.03;;;7.70;76.70;;;;;;5072753;28;20184;-82
2021/03/16 04:57:13;;;;;;;7.00;2.30;;;7.70;76.90;;;;;;5072322;28;20304;-82
2021/03/16 04:59:39;;;;;;;9.90;1.97;;;7.60;76.90;;;;;;5072392;28;20177;-82
2021/03/16 05:02:05;;;;;;;10.37;2.77;;;7.50;77.50;;;;;;5072023;28;20311;-82
2021/03/16 05:04:31;;;;;;;18.50;2.93;;;7.40;77.80;;;;;;5074068;28;20419;-82
2021/03/16 05:06:56;;;;;;;13.70;2.83;;;7.50;78.20;;;;;;5072332;28;20180;-82
2021/03/16 05:09:22;;;;;;;11.97;2.70;;;7.30;78.40;;;;;;5072585;28;20191;-82
2021/03/16 05:11:48;;;;;;;8.27;2.13;;;7.40;78.80;;;;;;5072264;28;20314;-82
2021/03/16 05:14:13;;;;;;;13.33;2.57;;;7.30;79.00;;;;;;5072322;28;20223;-82
2021/03/16 05:16:39;;;;;;;9.97;2.73;;;7.40;79.20;;;;;;5072314;28;20628;-82
2021/03/16 05:19:05;;;;;;;14.50;3.13;;;7.40;79.20;;;;;;5072291;28;20230;-84
2021/03/16 05:21:31;;;;;;;20.90;3.30;;;7.30;79.40;;;;;;5072105;28;20568;-82
2021/03/16 05:23:56;;;;;;;6.97;2.17;;;7.30;79.60;;;;;;5073934;28;20403;-83
2021/03/16 05:26:23;;;;;;;9.80;2.90;;;7.40;79.70;;;;;;5072625;28;20585;-83
2021/03/16 05:28:51;;;;;;;17.42;3.00;;;7.40;79.70;;;;;;5073390;28;20193;-83
2021/03/16 05:31:17;;;;;;;10.02;3.55;;;7.40;79.50;;;;;;5071831;28;20207;-83
2021/03/16 05:33:43;;;;;;;13.38;3.35;;;7.50;79.40;;;;;;5072630;28;20190;-83
2021/03/16 05:36:09;;;;;;;13.48;2.40;;;7.40;79.30;;;;;;5073665;28;20275;-83
2021/03/16 05:38:34;;;;;;;12.75;2.40;;;7.50;79.50;;;;;;5077109;28;20628;-82
2021/03/16 05:41:01;;;;;;;10.73;2.90;;;7.50;79.50;;;;;;5075618;28;20177;-82
2021/03/16 05:43:27;;;;;;;16.83;4.47;;;7.60;79.40;;;;;;5076063;28;20196;-82
2021/03/16 05:45:57;;;;;;;19.02;3.50;;;7.60;79.20;;;;;;5075809;28;20177;-82
2021/03/16 05:48:29;;;;;;;11.73;3.30;;;7.70;79.10;;;;;;5075804;28;20172;-82
2021/03/16 05:50:56;;;;;;;9.63;3.05;;;7.70;78.80;;;;;;5067682;28;20188;-82
2021/03/16 05:53:22;;;;;;;14.80;3.00;;;7.70;79.00;;;;;;5055860;28;20238;-82
2021/03/16 05:55:48;;;;;;;9.98;4.85;;;7.80;78.90;;;;;;5056726;28;20252;-81
2021/03/16 05:58:14;;;;;;;20.20;3.30;;;7.80;78.90;;;;;;5055734;28;20274;-82
2021/03/16 06:00:40;;;;;;;12.73;3.00;;;7.80;78.80;;;;;;5055215;28;20780;-81
2021/03/16 06:03:05;;;;;;;11.70;3.37;;;7.80;79.00;;;;;;5055492;28;20770;-83
2021/03/16 06:05:32;;;;;;;18.93;3.20;;;8.00;79.00;;;;;;5056542;28;20184;-82
2021/03/16 06:07:57;;;;;;;15.52;3.53;;;8.00;78.90;;;;;;5064235;28;20410;-81
2021/03/16 06:10:23;;;;;;;7.47;3.50;;;7.90;79.00;;;;;;5075753;28;20300;-81
2021/03/16 06:12:49;;;;;;;19.90;3.45;;;7.90;79.20;;;;;;5075041;28;20209;-81
2021/03/16 06:15:20;;;;;;;18.63;3.43;;;7.80;79.30;;;;;;5077090;28;20234;-82
2021/03/16 06:17:47;;;;;;;20.45;3.40;;;7.70;79.70;;;;;;5076979;28;20459;-81
2021/03/16 06:20:32;;;;;;;13.15;3.28;;;7.70;79.90;;;;;;5076876;28;20324;-82
2021/03/16 06:23:08;;;;;;;13.70;3.60;;;7.60;80.30;;;;;;5075208;28;20189;-81
2021/03/16 06:25:37;;;;;;;16.90;2.30;;;7.60;81.20;;;;;;5075193;28;20176;-81
2021/03/16 06:28:05;;;;;;;11.18;3.40;;;7.60;80.60;;;;;;5075472;28;20207;-82
2021/03/16 06:30:31;;;;;;;17.77;4.15;;;7.40;80.90;;;;;;5076754;28;20224;-82
2021/03/16 06:32:57;;;;;;;12.75;3.10;;;7.50;81.10;;;;;;5074979;28;20208;-82
2021/03/16 06:35:24;;;;;;;9.73;3.22;;;7.40;81.10;;;;;;5075295;28;20199;-82
2021/03/16 06:38:10;;;;;;;17.35;2.78;;;7.60;81.10;;;;;;5074394;28;20281;-82
2021/03/16 06:40:36;;;;;;;16.23;2.88;;;7.60;80.80;;;;;;5074855;28;20670;-82
2021/03/16 06:43:11;;;;;;;6.40;3.40;;;7.80;80.60;;;;;;5076851;28;20211;-83
2021/03/16 06:45:39;;;;;;;18.73;3.83;;;7.70;80.40;;;;;;5076217;28;20708;-82
2021/03/16 06:48:25;;;;;;;6.57;3.35;;;7.60;80.40;;;;;;5077114;28;20181;-83
2021/03/16 06:50:52;;;;;;;25.80;4.22;;;7.50;80.80;;;;;;5069721;28;20178;-82
2021/03/16 06:53:20;;;;;;;11.57;3.28;;;7.50;81.00;;;;;;5057071;28;20201;-83
2021/03/16 06:55:53;;;;;;;21.02;3.60;;;7.50;81.20;;;;;;5056853;28;20177;-82
2021/03/16 06:58:34;;;;;;;17.20;3.38;;;7.60;81.10;;;;;;5057562;28;20244;-83
2021/03/16 07:01:16;;;;;;;16.67;3.75;;;7.60;81.10;;;;;;5075196;28;20188;-83
2021/03/16 07:03:43;;;;;;;15.90;3.10;;;7.70;81.00;;;;;;5074852;28;20177;-82
2021/03/16 07:06:11;;;;;;;16.00;3.17;;;7.80;80.90;;;;;;5075286;28;20208;-82
2021/03/16 07:08:38;;;;;;;8.32;3.30;;;7.70;80.70;;;;;;5075034;28;20255;-82
2021/03/16 07:11:25;;;;;;;7.30;3.17;;;7.90;80.60;;;;;;5075329;28;20507;-82
2021/03/16 07:13:51;;;;;;;11.30;3.22;;;7.70;80.40;;;;;;5074197;28;20214;-82
2021/03/16 07:16:17;;;;;;;14.73;3.53;;;7.70;80.90;;;;;;5074852;28;20303;-82
2021/03/16 07:18:45;;;;;;;13.60;3.53;;;7.80;80.90;;;;;;5074902;28;20176;-81
2021/03/16 07:21:16;;;;;;;11.00;3.15;;;7.80;80.60;;;;;;5074446;28;20176;-82
2021/03/16 07:23:49;;;;;;;14.05;3.33;;;7.70;80.90;;;;;;5075907;28;20172;-81
2021/03/16 07:26:16;;;;;;;11.23;3.33;;;7.70;81.20;;;;;;5075385;28;20202;-82
2021/03/16 07:28:45;;;;;;;11.05;4.20;;;7.80;81.40;;;;;;5076031;28;20183;-81
2021/03/16 07:31:12;;;;;;;14.80;3.80;;;7.90;81.50;;;;;;5074765;28;20207;-81
2021/03/16 07:33:39;;;;;;;21.60;3.70;;;7.90;81.10;;;;;;5076545;28;20165;-81
2021/03/16 07:36:05;;;;;;;19.95;4.80;;;8.00;81.00;;;;;;5075606;28;20180;-81
2021/03/16 07:38:32;;;;;;;22.27;3.78;;;8.10;81.10;;;;;;5076229;28;20168;-81
2021/03/16 07:41:02;;;;;;;12.85;4.10;;;8.10;80.80;;;;;;5074023;28;20173;-82
2021/03/16 07:43:39;;;;;;;22.45;4.13;;;8.10;80.80;;;;;;5075338;28;20188;-82
2021/03/16 07:46:11;;;;;;;10.80;3.83;;;8.10;80.80;;;;;;5074004;28;20191;-79
2021/03/16 07:48:45;;;;;;;21.77;4.18;;;8.10;80.80;;;;;;5073771;28;20173;-79
2021/03/16 07:51:16;;;;;;;10.70;4.97;;;7.90;80.80;;;;;;5074000;28;20169;-79
2021/03/16 07:53:53;;;;;;;10.52;4.80;;;7.80;81.40;;;;;;5075218;28;20247;-80
2021/03/16 07:56:26;;;;;;;14.57;4.50;;;7.70;82.30;;;;;;5075184;28;20253;-79
2021/03/16 07:58:52;;;;;;;11.35;4.88;;;7.70;83.00;;;;;;5074144;28;20247;-79
2021/03/16 08:01:17;;;;;;;7.57;4.07;;;7.90;83.10;;;;;;5073478;28;20223;-80
2021/03/16 08:03:43;;;;;;;11.20;3.35;;;7.80;82.80;;;;;;5074052;28;20648;-79
2021/03/16 08:06:31;;;;;;;12.43;3.70;;;7.90;83.00;;;;;;5073732;28;20180;-80
2021/03/16 08:08:56;;;;;;;30.58;4.18;;;8.00;82.60;;;;;;5073972;28;20204;-79
2021/03/16 08:11:22;;;;;;;13.13;3.40;;;8.10;82.50;;;;;;5074448;28;20188;-80
2021/03/16 08:13:59;;;;;;;15.20;3.23;;;8.30;82.10;;;;;;5075651;28;20185;-79
2021/03/16 08:16:39;;;;;;;10.15;3.30;;;8.30;81.50;;;;;;5077236;28;20844;-80
2021/03/16 08:19:13;;;;;;;5.13;3.05;;;8.20;80.20;;;;;;5075045;28;20195;-79
2021/03/16 08:21:43;;;;;;;14.63;4.57;;;7.90;78.60;;;;;;5077278;28;20238;-79
2021/03/16 08:24:15;;;;;;;24.13;5.80;;;8.20;79.30;;;;;;5075389;28;20252;-79
2021/03/16 08:26:54;;;;;;;7.18;3.72;;;8.20;79.60;;;;;;5076406;28;20181;-79
2021/03/16 08:29:27;;;;;;;8.48;3.55;;;8.30;80.10;;;;;;5075388;28;20593;-79
2021/03/16 08:31:54;;;;;;;14.73;4.60;;;8.40;80.70;;;;;;5074536;28;20211;-80
2021/03/16 08:34:26;;;;;;;13.68;3.60;;;8.50;80.70;;;;;;5075450;28;20176;-79
2021/03/16 08:36:52;;;;;;;10.73;4.18;;;8.40;80.20;;;;;;5081856;28;20275;-79
2021/03/16 08:39:20;;;;;;;17.08;4.75;;;8.30;80.20;;;;;;5094900;28;20190;-78
2021/03/16 08:42:01;;;;;;;14.18;4.47;;;8.30;80.60;;;;;;5078369;28;20201;-79
2021/03/16 08:44:29;;;;;;;16.02;4.35;;;8.50;81.00;;;;;;5078009;28;20183;-79
2021/03/16 08:46:59;;;;;;;21.25;6.25;;;8.40;81.20;;;;;;5084293;28;20180;-79
2021/03/16 08:49:25;;;;;;;19.00;6.47;;;8.20;81.70;;;;;;5089233;28;20248;-79
2021/03/16 08:51:51;;;;;;;15.32;4.40;;;8.20;82.20;;;;;;5086654;28;20192;-79
2021/03/16 08:54:25;;;;;;;22.05;4.15;;;7.90;82.40;;;;;;5087005;28;20202;-79
2021/03/16 08:56:51;;;;;;;12.05;3.65;;;7.80;83.50;;;;;;5087990;28;20257;-79
2021/03/16 08:59:21;;;;;;;22.80;4.07;;;7.70;83.10;;;;;;5086584;28;20199;-79
2021/03/16 09:01:49;;;;;;;12.45;3.40;;;7.60;83.20;;;;;;5086838;28;20526;-79
2021/03/16 09:04:15;;;;;;;8.98;2.47;;;7.50;82.80;;;;;;5087090;28;20635;-79
2021/03/16 09:06:42;;;;;;;13.40;3.60;;;7.50;82.90;;;;;;5086269;28;20244;-79
2021/03/16 09:09:08;;;;;;;10.20;1.98;;;7.40;82.60;;;;;;5085069;28;20188;-79
2021/03/16 09:11:40;;;;;;;9.07;2.50;;;7.40;82.30;;;;;;5083837;28;20200;-79
2021/03/16 09:14:24;;;;;;;5.78;2.30;;;7.40;82.30;;;;;;5084501;28;20188;-79
2021/03/16 09:16:54;;;;;;;3.00;2.15;;;7.30;81.60;;;;;;5076880;28;20195;-78
2021/03/16 09:19:32;;;;;;;3.53;1.80;;;7.40;81.40;;;;;;5080908;28;20153;-79
2021/03/16 09:22:02;;;;;;;4.60;2.15;;;7.30;81.00;;;;;;5080605;28;20196;-79
2021/03/16 09:24:29;;;;;;;8.35;2.20;;;7.30;81.30;;;;;;5079764;28;20724;-79
2021/03/16 09:27:01;;;;;;;9.02;2.05;;;7.40;81.40;;;;;;5078292;28;20172;-79
2021/03/16 09:29:35;;;;;;;5.85;1.80;;;7.30;80.80;;;;;;5076674;28;20717;-79
2021/03/16 09:32:10;;;;;;;2.95;1.23;;;7.50;81.10;;;;;;5077393;28;20195;-79
2021/03/16 09:34:39;;;;;;;6.53;1.52;;;7.60;81.10;;;;;;5078468;28;20176;-79
2021/03/16 09:37:07;;;;;;;6.63;1.77;;;7.60;80.90;;;;;;5079033;28;20184;-78
2021/03/16 09:39:33;;;;;;;5.13;1.30;;;7.60;79.70;;;;;;5078480;28;20942;-78
2021/03/16 09:42:00;;;;;;;5.03;1.00;;;7.60;79.50;;;;;;5076288;28;20196;-79
2021/03/16 09:44:42;;;;;;;3.03;1.40;;;7.70;78.80;;;;;;5078029;28;20438;-79
2021/03/16 09:47:08;;;;;;;8.20;1.45;;;7.80;78.50;;;;;;5078451;28;20165;-79
2021/03/16 09:49:41;;;;;;;3.80;1.42;;;7.90;78.60;;;;;;5077386;28;20177;-79
2021/03/16 09:52:10;;;;;;;3.20;1.40;;;8.10;78.60;;;;;;5061016;28;20578;-79
2021/03/16 09:54:39;;;;;;;5.10;1.25;;;8.30;78.30;;;;;;5056581;28;20201;-79
2021/03/16 09:57:06;;;;;;;2.15;1.20;;;8.40;77.80;;;;;;5058052;28;20284;-80
2021/03/16 09:59:40;;;;;;;2.65;1.30;;;8.60;76.90;;;;;;5067529;28;20184;-79
2021/03/16 10:02:07;;;;;;;7.25;1.40;;;8.70;76.50;;;;;;5074515;28;20220;-79
2021/03/16 10:04:47;;;;;;;1.73;0.95;;;8.60;76.10;;;;;;5075697;28;20600;-79
2021/03/16 10:07:29;;;;;;;1.75;1.08;;;8.60;76.40;;;;;;5076359;28;20192;-79
2021/03/16 10:10:09;;;;;;;2.92;1.35;;;8.70;76.80;;;;;;5075156;28;20185;-79
2021/03/16 10:12:35;;;;;;;4.45;1.67;;;8.90;76.70;;;;;;5074558;28;20200;-78
2021/03/16 10:15:01;;;;;;;2.88;1.33;;;9.00;76.40;;;;;;5074688;28;20203;-78
2021/03/16 10:17:28;;;;;;;3.83;1.37;;;9.00;75.40;;;;;;5074657;28;20200;-78
2021/03/16 10:19:56;;;;;;;6.18;1.10;;;8.80;75.70;;;;;;5074690;28;20176;-78
2021/03/16 10:22:30;;;;;;;2.30;1.23;;;8.90;75.70;;;;;;5074321;28;20197;-79
2021/03/16 10:25:04;;;;;;;1.55;1.13;;;8.90;75.80;;;;;;5075221;28;20175;-79
2021/03/16 10:27:33;;;;;;;5.85;1.20;;;9.00;75.70;;;;;;5074762;28;20545;-79
2021/03/16 10:30:05;;;;;;;3.30;1.73;;;9.10;75.60;;;;;;5076106;28;20243;-79
2021/03/16 10:32:31;;;;;;;2.55;1.38;;;8.90;75.40;;;;;;5075353;28;20192;-79
2021/03/16 10:34:56;;;;;;;1.70;1.60;;;9.00;75.90;;;;;;5074380;28;20700;-79
2021/03/16 10:37:24;;;;;;;2.60;1.50;;;9.20;76.20;;;;;;5074378;28;20197;-79
2021/03/16 10:39:51;;;;;;;10.02;2.10;;;9.30;75.60;;;;;;5075809;28;20636;-79
2021/03/16 10:42:17;;;;;;;4.97;2.10;;;9.20;75.30;;;;;;5074935;28;20200;-78
2021/03/16 10:44:43;;;;;;;2.95;1.40;;;9.10;75.80;;;;;;5074524;28;20600;-80
2021/03/16 10:47:13;;;;;;;9.27;2.20;;;9.10;76.00;;;;;;5075356;28;20303;-79
2021/03/16 10:49:39;;;;;;;4.15;1.90;;;9.20;76.30;;;;;;5074182;28;20631;-79
2021/03/16 10:52:05;;;;;;;9.02;2.65;;;9.30;76.60;;;;;;5073459;28;20695;-78
2021/03/16 10:54:33;;;;;;;7.78;2.10;;;9.20;76.50;;;;;;5074278;28;20655;-79
2021/03/16 10:56:59;;;;;;;2.83;1.60;;;9.20;76.60;;;;;;5074474;28;20208;-79
2021/03/16 10:59:24;;;;;;;4.60;2.33;;;9.10;75.40;;;;;;5074668;28;20175;-79
2021/03/16 11:01:51;;;;;;;7.73;1.63;;;9.00;75.20;;;;;;5075594;28;20238;-80
2021/03/16 11:04:18;;;;;;;3.70;2.10;;;8.90;74.90;;;;;;5074648;28;20264;-79
2021/03/16 11:06:45;;;;;;;3.45;1.80;;;8.90;75.20;;;;;;5075610;28;20200;-79
2021/03/16 11:09:12;;;;;;;4.28;2.38;;;8.90;76.00;;;;;;5074911;28;20173;-79
2021/03/16 11:11:38;;;;;;;4.63;2.40;;;9.00;76.50;;;;;;5075800;28;20197;-80
2021/03/16 11:14:04;;;;;;;2.07;1.60;;;9.10;76.80;;;;;;5075040;28;20188;-79
2021/03/16 11:16:29;;;;;;;3.07;2.50;;;9.20;76.10;;;;;;5074440;28;20668;-79
2021/03/16 11:18:55;;;;;;;2.10;2.00;;;9.20;75.70;;;;;;5074666;28;20411;-79
2021/03/16 11:21:21;;;;;;;2.53;1.80;;;9.30;75.10;;;;;;5075821;28;20792;-80
2021/03/16 11:23:47;;;;;;;3.10;2.17;;;9.40;74.60;;;;;;5076410;28;20434;-79
2021/03/16 11:26:13;;;;;;;8.10;2.30;;;9.50;74.50;;;;;;5076430;28;20161;-80
2021/03/16 11:28:38;;;;;;;3.20;1.70;;;9.40;74.10;;;;;;5076141;28;20472;-80
2021/03/16 11:31:04;;;;;;;5.53;2.30;;;9.20;73.10;;;;;;5073551;28;20647;-81
2021/03/16 11:33:30;;;;;;;3.17;1.97;;;9.40;73.60;;;;;;5075962;28;20200;-80
2021/03/16 11:35:55;;;;;;;2.27;2.10;;;9.30;73.90;;;;;;5073756;28;20470;-79
2021/03/16 11:38:21;;;;;;;7.30;2.10;;;9.30;73.40;;;;;;5074144;28;20258;-79
2021/03/16 11:40:47;;;;;;;1.97;1.77;;;9.10;73.30;;;;;;5073522;28;20648;-80
2021/03/16 11:43:12;;;;;;;2.90;2.53;;;8.80;73.70;;;;;;5073801;28;20215;-80
2021/03/16 11:45:39;;;;;;;2.60;2.40;;;8.80;74.50;;;;;;5074013;28;20606;-80
2021/03/16 11:48:06;;;;;;;7.32;3.28;;;8.90;75.10;;;;;;5075187;28;20241;-79
2021/03/16 11:50:32;;;;;;;3.38;2.97;;;9.00;75.70;;;;;;5069238;28;20181;-81
2021/03/16 11:52:58;;;;;;;6.65;3.90;;;9.00;75.80;;;;;;5057548;28;20721;-81
2021/03/16 11:55:24;;;;;;;6.55;4.35;;;9.10;75.40;;;;;;5060062;28;20710;-81
2021/03/16 11:57:50;;;;;;;7.23;4.57;;;9.30;75.60;;;;;;5070476;28;20200;-81
2021/03/16 12:00:16;;;;;;;5.60;3.60;;;9.20;75.30;;;;;;5084934;28;20193;-80
2021/03/16 12:02:41;;;;;;;8.57;3.97;;;9.10;75.30;;;;;;5077336;28;20265;-79
2021/03/16 12:05:08;;;;;;;8.73;3.60;;;9.20;75.80;;;;;;5084272;28;20208;-80
2021/03/16 12:07:33;;;;;;;5.22;4.60;;;8.90;75.50;;;;;;5076531;28;20208;-80
2021/03/16 12:09:59;;;;;;;7.13;4.63;;;9.10;75.50;;;;;;5075222;28;20188;-80
2021/03/16 12:12:25;;;;;;;6.77;4.33;;;9.20;74.90;;;;;;5081734;28;20197;-80
2021/03/16 12:14:51;;;;;;;5.10;3.87;;;9.20;75.00;;;;;;5078323;28;20434;-80
2021/03/16 12:17:17;;;;;;;6.17;2.97;;;9.30;75.10;;;;;;5075335;28;20473;-79
2021/03/16 12:19:43;;;;;;;9.97;3.30;;;9.00;75.40;;;;;;5076907;28;20173;-79
2021/03/16 12:22:08;;;;;;;6.07;4.53;;;9.20;75.60;;;;;;5082206;28;20223;-78
2021/03/16 12:24:34;;;;;;;6.30;3.30;;;9.40;75.30;;;;;;5077073;28;20204;-81
2021/03/16 12:27:00;;;;;;;3.67;3.37;;;9.40;74.60;;;;;;5081224;28;20187;-80
2021/03/16 12:29:26;;;;;;;7.33;4.50;;;9.30;74.50;;;;;;5078438;28;20230;-81
2021/03/16 12:31:51;;;;;;;6.70;5.03;;;9.30;74.80;;;;;;5078341;28;20267;-80
2021/03/16 12:34:17;;;;;;;7.30;5.30;;;9.40;74.90;;;;;;5078228;28;20679;-79
2021/03/16 12:36:43;;;;;;;6.00;4.33;;;9.40;75.00;;;;;;5074576;28;20323;-80
2021/03/16 12:39:09;;;;;;;7.95;5.22;;;9.40;75.10;;;;;;5077121;28;20161;-79
2021/03/16 12:41:35;;;;;;;8.60;6.07;;;9.30;75.20;;;;;;5066629;28;20223;-79
2021/03/16 12:44:01;;;;;;;7.10;4.87;;;9.50;75.20;;;;;;5054600;28;20193;-79
2021/03/16 12:46:29;;;;;;;7.57;5.60;;;9.60;75.10;;;;;;5058700;28;20177;-80
2021/03/16 12:48:55;;;;;;;5.35;4.70;;;9.50;75.40;;;;;;5055706;28;20177;-80
2021/03/16 12:51:21;;;;;;;7.43;4.57;;;9.60;75.00;;;;;;5058536;28;20212;-80
2021/03/16 12:53:48;;;;;;;4.43;3.97;;;9.70;75.10;;;;;;5057160;28;20428;-79
2021/03/16 12:56:14;;;;;;;5.28;3.15;;;9.70;75.20;;;;;;5055765;28;20177;-80
2021/03/16 12:58:40;;;;;;;6.07;4.72;;;9.60;75.30;;;;;;5062814;28;20175;-79